createdAt,value
2022-08-14T00:01:24.126Z,3.78
2022-08-14T00:03:50.939Z,4.20
2022-08-14T00:06:25.578Z,4.50
2022-08-14T00:08:58.970Z,4.15
2022-08-14T00:11:31.203Z,4.07
2022-08-14T00:13:59.425Z,3.97
2022-08-14T00:16:41.199Z,4.75
2022-08-14T00:19:19.214Z,4.00
2022-08-14T00:21:50.391Z,4.70
2022-08-14T00:24:23.127Z,4.07
2022-08-14T00:26:55.991Z,4.00
2022-08-14T00:29:25.105Z,4.15
2022-08-14T00:31:56.039Z,3.97
2022-08-14T00:34:37.951Z,4.38
2022-08-14T00:37:11.272Z,4.00
2022-08-14T00:39:39.544Z,4.00
2022-08-14T00:42:07.665Z,3.53
2022-08-14T00:44:48.759Z,4.22
2022-08-14T00:47:17.300Z,3.65
2022-08-14T00:49:45.489Z,4.00
2022-08-14T00:52:17.627Z,4.45
2022-08-14T00:54:46.775Z,4.28
2022-08-14T00:57:13.749Z,4.00
2022-08-14T00:59:41.267Z,4.50
2022-08-14T01:02:09.341Z,3.83
2022-08-14T01:04:38.431Z,4.40
2022-08-14T01:07:21.719Z,3.85
2022-08-14T01:10:01.838Z,4.43
2022-08-14T01:12:30.123Z,3.72
2022-08-14T01:14:59.300Z,3.50
2022-08-14T01:17:49.931Z,3.83
2022-08-14T01:20:39.971Z,3.65
2022-08-14T01:23:15.773Z,4.20
2022-08-14T01:25:44.142Z,3.90
2022-08-14T01:28:12.600Z,4.13
2022-08-14T01:30:59.555Z,4.45
2022-08-14T01:33:29.145Z,3.90
2022-08-14T01:36:05.562Z,4.20
2022-08-14T01:38:48.964Z,4.38
2022-08-14T01:41:23.072Z,4.05
2022-08-14T01:44:02.407Z,3.72
2022-08-14T01:46:33.552Z,4.10
2022-08-14T01:49:10.026Z,3.72
2022-08-14T01:51:37.804Z,4.40
2022-08-14T01:54:14.224Z,4.10
2022-08-14T01:56:44.803Z,3.75
2022-08-14T01:59:18.626Z,4.00
2022-08-14T02:01:58.340Z,4.13
2022-08-14T02:04:55.638Z,3.80
2022-08-14T02:07:34.330Z,3.97
2022-08-14T02:10:08.730Z,3.78
2022-08-14T02:12:40.921Z,4.10
2022-08-14T02:15:11.385Z,4.00
2022-08-14T02:17:38.525Z,3.83
2022-08-14T02:20:08.562Z,4.45
2022-08-14T02:22:35.512Z,3.67
2022-08-14T02:25:14.567Z,3.63
2022-08-14T02:28:25.585Z,3.92
2022-08-14T02:30:33.740Z,4.05
2022-08-14T02:33:01.208Z,4.53
2022-08-14T02:35:32.973Z,4.55
2022-08-14T02:37:59.941Z,4.47
2022-08-14T02:40:32.515Z,4.18
2022-08-14T02:43:03.983Z,4.55
2022-08-14T02:45:38.405Z,4.25
2022-08-14T02:49:03.089Z,4.20
2022-08-14T02:51:00.726Z,4.15
2022-08-14T02:53:31.509Z,4.60
2022-08-14T02:56:02.571Z,4.55
2022-08-14T02:58:31.360Z,4.10
2022-08-14T03:00:59.359Z,4.00
2022-08-14T03:03:27.745Z,4.30
2022-08-14T03:05:58.806Z,4.57
2022-08-14T03:08:31.784Z,4.15
2022-08-14T03:11:06.601Z,3.80
2022-08-14T03:13:35.685Z,4.30
2022-08-14T03:16:03.830Z,4.40
2022-08-14T03:18:42.452Z,4.20
2022-08-14T03:21:13.410Z,4.32
2022-08-14T03:23:42.320Z,4.40
2022-08-14T03:26:18.271Z,4.80
2022-08-14T03:28:51.450Z,4.22
2022-08-14T03:31:22.498Z,4.20
2022-08-14T03:33:54.263Z,4.53
2022-08-14T03:37:38.473Z,3.92
2022-08-14T03:39:15.691Z,4.60
2022-08-14T03:41:50.870Z,4.47
2022-08-14T03:45:18.843Z,4.60
2022-08-14T03:47:04.756Z,4.72
2022-08-14T03:49:32.155Z,4.43
2022-08-14T03:52:07.807Z,4.38
2022-08-14T03:54:52.470Z,4.50
2022-08-14T03:57:20.238Z,4.75
2022-08-14T03:59:49.570Z,4.80
2022-08-14T04:02:32.316Z,4.47
2022-08-14T04:05:11.584Z,4.70
2022-08-14T04:07:49.625Z,4.53
2022-08-14T04:10:32.371Z,4.43
2022-08-14T04:13:03.691Z,5.00
2022-08-14T04:15:32.085Z,4.63
2022-08-14T04:18:19.038Z,4.70
2022-08-14T04:20:54.765Z,5.40
2022-08-14T04:23:29.574Z,4.13
2022-08-14T04:26:01.397Z,4.22
2022-08-14T04:29:07.932Z,4.70
2022-08-14T04:31:16.190Z,4.32
2022-08-14T04:33:42.835Z,4.78
2022-08-14T04:36:16.054Z,4.57
2022-08-14T04:39:02.953Z,4.78
2022-08-14T04:41:48.245Z,5.03
2022-08-14T04:44:35.870Z,5.10
2022-08-14T04:47:21.990Z,4.82
2022-08-14T04:49:57.265Z,5.22
2022-08-14T04:52:25.102Z,5.40
2022-08-14T04:54:52.130Z,4.85
2022-08-14T04:57:21.237Z,4.50
2022-08-14T04:59:49.380Z,5.03
2022-08-14T05:02:18.039Z,4.88
2022-08-14T05:04:45.559Z,5.22
2022-08-14T05:07:53.928Z,5.28
2022-08-14T05:10:13.162Z,4.57
2022-08-14T05:13:24.283Z,5.13
2022-08-14T05:15:29.439Z,4.25
2022-08-14T05:18:16.791Z,5.50
2022-08-14T05:21:57.671Z,4.57
2022-08-14T05:23:37.578Z,4.88
2022-08-14T05:26:13.260Z,4.35
2022-08-14T05:28:46.349Z,5.18
2022-08-14T05:31:20.373Z,5.20
2022-08-14T05:33:56.462Z,4.70
2022-08-14T05:36:23.948Z,5.28
2022-08-14T05:38:51.051Z,5.78
2022-08-14T05:41:20.298Z,5.57
2022-08-14T05:43:48.984Z,4.30
2022-08-14T05:46:22.621Z,5.07
2022-08-14T05:48:56.129Z,5.13
2022-08-14T05:51:25.164Z,4.32
2022-08-14T05:54:00.182Z,5.05
2022-08-14T05:56:36.888Z,4.47
2022-08-14T05:59:05.499Z,5.22
2022-08-14T06:01:32.200Z,5.25
2022-08-14T06:03:58.882Z,4.95
2022-08-14T06:06:25.372Z,5.20
2022-08-14T06:08:52.874Z,5.43
2022-08-14T06:11:27.932Z,5.15
2022-08-14T06:13:58.673Z,4.95
2022-08-14T06:16:25.332Z,5.70
2022-08-14T06:18:52.866Z,4.90
2022-08-14T06:21:21.721Z,5.30
2022-08-14T06:23:49.276Z,5.60
2022-08-14T06:26:15.989Z,5.05
2022-08-14T06:28:46.957Z,5.00
2022-08-14T06:31:13.451Z,4.90
2022-08-14T06:35:11.182Z,4.47
2022-08-14T06:36:27.115Z,5.00
2022-08-14T06:38:54.489Z,4.97
2022-08-14T06:41:57.180Z,4.43
2022-08-14T06:44:09.675Z,4.75
2022-08-14T06:46:37.759Z,4.53
2022-08-14T06:49:05.357Z,4.70
2022-08-14T06:51:38.647Z,4.85
2022-08-14T06:54:11.329Z,4.85
2022-08-14T06:56:38.673Z,5.07
2022-08-14T06:59:05.851Z,5.30
2022-08-14T07:01:51.499Z,5.18
2022-08-14T07:04:41.489Z,4.90
2022-08-14T07:07:08.019Z,5.20
2022-08-14T07:09:44.112Z,4.78
2022-08-14T07:12:52.200Z,5.47
2022-08-14T07:15:06.172Z,5.43
2022-08-14T07:17:34.474Z,5.13
2022-08-14T07:20:04.655Z,5.10
2022-08-14T07:22:49.847Z,4.50
2022-08-14T07:25:20.431Z,4.90
2022-08-14T07:27:46.935Z,5.00
2022-08-14T07:30:34.781Z,4.60
2022-08-14T07:33:00.976Z,4.72
2022-08-14T07:35:37.406Z,5.32
2022-08-14T07:38:18.470Z,5.15
2022-08-14T07:40:48.258Z,5.40
2022-08-14T07:43:20.472Z,4.72
2022-08-14T07:45:47.962Z,5.43
2022-08-14T07:48:17.967Z,5.00
2022-08-14T07:50:51.884Z,4.32
2022-08-14T07:53:19.394Z,5.15
2022-08-14T07:56:00.434Z,4.68
2022-08-14T07:58:38.991Z,5.30
2022-08-14T08:01:19.836Z,5.30
2022-08-14T08:03:51.821Z,5.22
2022-08-14T08:06:26.013Z,5.43
2022-08-14T08:09:01.245Z,5.38
2022-08-14T08:11:34.873Z,5.43
2022-08-14T08:14:17.255Z,5.68
2022-08-14T08:16:47.393Z,4.93
2022-08-14T08:19:19.202Z,5.18
2022-08-14T08:21:47.076Z,5.53
2022-08-14T08:24:19.910Z,5.10
2022-08-14T08:26:48.144Z,6.05
2022-08-14T08:29:28.226Z,5.53
2022-08-14T08:32:01.657Z,5.25
2022-08-14T08:34:32.015Z,5.15
2022-08-14T08:36:58.617Z,4.97
2022-08-14T08:39:30.786Z,4.95
2022-08-14T08:42:11.577Z,4.97
2022-08-14T08:44:41.014Z,4.82
2022-08-14T08:47:09.981Z,4.53
2022-08-14T08:49:42.963Z,5.35
2022-08-14T08:52:25.071Z,5.68
2022-08-14T08:54:55.802Z,5.05
2022-08-14T08:57:22.351Z,4.85
2022-08-14T08:59:55.383Z,4.82
2022-08-14T09:02:26.137Z,5.00
2022-08-14T09:05:02.446Z,5.00
2022-08-14T09:07:28.964Z,4.70
2022-08-14T09:09:59.918Z,5.28
2022-08-14T09:12:31.429Z,5.00
2022-08-14T09:15:01.196Z,4.43
2022-08-14T09:17:28.265Z,4.50
2022-08-14T09:19:55.678Z,4.85
2022-08-14T09:22:36.202Z,5.35
2022-08-14T09:25:06.874Z,4.93
2022-08-14T09:27:36.655Z,5.00
2022-08-14T09:30:31.161Z,4.90
2022-08-14T09:33:09.073Z,4.70
2022-08-14T09:35:58.910Z,4.63
2022-08-14T09:38:47.135Z,4.68
2022-08-14T09:42:21.586Z,4.55
2022-08-14T09:45:08.517Z,4.57
2022-08-14T09:47:47.173Z,4.40
2022-08-14T09:50:29.945Z,4.22
2022-08-14T09:52:59.572Z,4.82
2022-08-14T09:55:28.227Z,4.13
2022-08-14T09:58:22.554Z,4.85
2022-08-14T10:00:54.318Z,4.63
2022-08-14T10:03:34.408Z,4.63
2022-08-14T10:06:19.371Z,5.40
2022-08-14T10:08:51.754Z,5.00
2022-08-14T10:11:23.037Z,4.18
2022-08-14T10:13:54.337Z,4.40
2022-08-14T10:16:33.294Z,5.05
2022-08-14T10:19:09.525Z,4.88
2022-08-14T10:21:58.753Z,4.65
2022-08-14T10:24:36.518Z,4.88
2022-08-14T10:27:03.736Z,4.90
2022-08-14T10:29:38.816Z,4.82
2022-08-14T10:32:17.852Z,4.55
2022-08-14T10:35:10.901Z,5.03
2022-08-14T10:37:50.346Z,5.07
2022-08-14T10:40:44.303Z,5.30
2022-08-14T10:43:26.007Z,4.45
2022-08-14T10:46:21.467Z,4.07
2022-08-14T10:49:02.667Z,4.70
2022-08-14T10:51:36.414Z,4.72
2022-08-14T10:54:26.138Z,4.40
2022-08-14T10:57:11.391Z,4.80
2022-08-14T10:59:55.552Z,4.32
2022-08-14T11:02:44.908Z,4.85
2022-08-14T11:05:19.153Z,4.88
2022-08-14T11:08:00.922Z,4.65
2022-08-14T11:10:50.369Z,4.53
2022-08-14T11:13:26.640Z,4.63
2022-08-14T11:15:57.472Z,4.35
2022-08-14T11:18:32.329Z,4.72
2022-08-14T11:21:06.796Z,4.53
2022-08-14T11:23:38.121Z,4.32
2022-08-14T11:26:08.302Z,4.72
2022-08-14T11:28:46.862Z,4.75
2022-08-14T11:31:19.504Z,4.57
2022-08-14T11:33:57.575Z,4.55
2022-08-14T11:36:56.852Z,4.50
2022-08-14T11:39:34.802Z,4.70
2022-08-14T11:42:57.102Z,4.85
2022-08-14T11:45:00.214Z,4.97
2022-08-14T11:47:27.377Z,4.68
2022-08-14T11:50:13.322Z,4.85
2022-08-14T11:52:40.647Z,4.50
2022-08-14T11:55:13.568Z,4.43
2022-08-14T11:57:42.291Z,4.85
2022-08-14T12:00:31.715Z,4.35
2022-08-14T12:03:04.550Z,4.70
2022-08-14T12:05:42.230Z,4.80
2022-08-14T12:08:11.959Z,4.80
2022-08-14T12:10:43.275Z,4.43
2022-08-14T12:13:12.088Z,5.07
2022-08-14T12:15:44.614Z,5.10
2022-08-14T12:18:19.944Z,4.50
2022-08-14T12:20:52.715Z,4.30
2022-08-14T12:23:26.034Z,4.43
2022-08-14T12:26:31.568Z,4.07
2022-08-14T12:29:16.896Z,4.40
2022-08-14T12:31:47.283Z,4.43
2022-08-14T12:34:20.405Z,4.50
2022-08-14T12:36:49.770Z,4.40
2022-08-14T12:39:20.954Z,4.57
2022-08-14T12:42:01.463Z,4.43
2022-08-14T12:44:44.019Z,4.47
2022-08-14T12:47:16.688Z,4.10
2022-08-14T12:49:52.419Z,4.30
2022-08-14T12:52:45.383Z,4.13
2022-08-14T12:55:32.789Z,4.13
2022-08-14T12:58:35.379Z,4.10
2022-08-14T13:01:17.029Z,3.47
2022-08-14T13:03:48.168Z,3.83
2022-08-14T13:06:19.213Z,4.00
2022-08-14T13:08:53.079Z,4.22
2022-08-14T13:11:23.836Z,4.07
2022-08-14T13:13:56.579Z,3.75
2022-08-14T13:16:38.210Z,4.53
2022-08-14T13:19:16.107Z,3.50
2022-08-14T13:21:58.992Z,4.07
2022-08-14T13:24:34.466Z,3.58
2022-08-14T13:27:04.605Z,4.03
2022-08-14T13:29:37.629Z,3.90
2022-08-14T13:32:09.153Z,3.70
2022-08-14T13:34:37.556Z,4.50
2022-08-14T13:37:07.259Z,4.00
2022-08-14T13:39:36.321Z,4.70
2022-08-14T13:42:08.770Z,3.80
2022-08-14T13:44:45.379Z,4.43
2022-08-14T13:47:14.673Z,4.38
2022-08-14T13:49:57.410Z,4.75
2022-08-14T13:52:52.173Z,4.05
2022-08-14T13:55:14.029Z,4.30
2022-08-14T13:57:49.913Z,4.20
2022-08-14T14:00:35.653Z,4.60
2022-08-14T14:03:05.982Z,3.97
2022-08-14T14:05:52.636Z,4.88
2022-08-14T14:08:47.026Z,3.95
2022-08-14T14:11:09.661Z,4.45
2022-08-14T14:13:44.714Z,4.38
2022-08-14T14:16:15.607Z,5.03
2022-08-14T14:18:52.571Z,4.55
2022-08-14T14:21:21.486Z,4.45
2022-08-14T14:23:49.223Z,4.20
2022-08-14T14:26:23.269Z,3.88
2022-08-14T14:28:55.285Z,3.95
2022-08-14T14:31:29.999Z,3.83
2022-08-14T14:34:00.418Z,4.28
2022-08-14T14:36:32.768Z,3.75
2022-08-14T14:39:05.425Z,4.22
2022-08-14T14:41:44.118Z,4.15
2022-08-14T14:44:15.590Z,3.78
2022-08-14T14:46:50.647Z,4.40
2022-08-14T14:49:31.688Z,3.78
2022-08-14T14:52:16.830Z,3.85
2022-08-14T14:54:50.358Z,4.00
2022-08-14T14:57:19.210Z,3.90
2022-08-14T14:59:46.076Z,3.88
2022-08-14T15:02:32.361Z,3.75
2022-08-14T15:05:00.415Z,3.88
2022-08-14T15:07:27.188Z,3.38
2022-08-14T15:09:56.523Z,4.03
2022-08-14T15:12:55.524Z,3.90
2022-08-14T15:15:10.905Z,3.38
2022-08-14T15:17:40.928Z,3.75
2022-08-14T15:20:17.330Z,4.03
2022-08-14T15:22:57.384Z,3.90
2022-08-14T15:25:24.289Z,4.32
2022-08-14T15:27:51.243Z,3.95
2022-08-14T15:30:23.770Z,4.05
2022-08-14T15:32:51.702Z,3.38
2022-08-14T15:35:22.300Z,3.90
2022-08-14T15:37:55.995Z,3.88
2022-08-14T15:40:23.177Z,3.60
2022-08-14T15:42:49.818Z,4.05
2022-08-14T15:45:17.271Z,3.70
2022-08-14T15:47:44.098Z,3.80
2022-08-14T15:50:11.525Z,3.58
2022-08-14T15:52:38.525Z,3.95
2022-08-14T15:55:14.742Z,3.38
2022-08-14T15:58:02.087Z,3.80
2022-08-14T16:00:50.305Z,3.60
2022-08-14T16:03:27.934Z,3.85
2022-08-14T16:06:05.670Z,3.78
2022-08-14T16:08:32.673Z,2.88
2022-08-14T16:11:01.880Z,3.25
2022-08-14T16:13:42.960Z,3.47
2022-08-14T16:16:47.094Z,3.10
2022-08-14T16:19:09.986Z,3.53
2022-08-14T16:21:40.579Z,3.72
2022-08-14T16:24:27.635Z,3.45
2022-08-14T16:27:00.621Z,3.95
2022-08-14T16:29:30.310Z,3.58
2022-08-14T16:32:00.262Z,3.85
2022-08-14T16:34:45.031Z,3.72
2022-08-14T16:37:18.956Z,3.60
2022-08-14T16:39:48.677Z,3.72
2022-08-14T16:43:02.913Z,3.45
2022-08-14T16:45:02.914Z,3.97
2022-08-14T16:47:34.813Z,4.10
2022-08-14T16:50:09.226Z,4.35
2022-08-14T16:52:44.285Z,4.55
2022-08-14T16:55:13.920Z,4.55
2022-08-14T16:57:54.470Z,4.55
2022-08-14T17:00:32.692Z,4.40
2022-08-14T17:03:08.672Z,4.60
2022-08-14T17:05:41.655Z,4.35
2022-08-14T17:08:32.310Z,4.10
2022-08-14T17:11:10.936Z,4.45
2022-08-14T17:13:59.667Z,5.03
2022-08-14T17:16:36.953Z,4.43
2022-08-14T17:19:13.677Z,4.32
2022-08-14T17:21:41.998Z,4.85
2022-08-14T17:24:56.698Z,4.05
2022-08-14T17:27:00.024Z,3.97
2022-08-14T17:29:33.210Z,4.32
2022-08-14T17:32:22.505Z,4.70
2022-08-14T17:34:57.595Z,4.75
2022-08-14T17:37:30.530Z,4.53
2022-08-14T17:40:02.111Z,3.95
2022-08-14T17:42:45.188Z,4.35
2022-08-14T17:45:42.847Z,4.28
2022-08-14T17:49:14.997Z,4.47
2022-08-14T17:51:23.214Z,4.20
2022-08-14T17:54:01.365Z,4.65
2022-08-14T17:56:30.958Z,4.63
2022-08-14T17:59:06.189Z,4.72
2022-08-14T18:01:40.710Z,4.13
2022-08-14T18:04:28.345Z,4.97
2022-08-14T18:07:16.249Z,4.65
2022-08-14T18:09:56.187Z,4.50
2022-08-14T18:12:32.916Z,4.32
2022-08-14T18:15:16.227Z,4.78
2022-08-14T18:17:52.643Z,4.53
2022-08-14T18:21:40.115Z,4.60
2022-08-14T18:23:08.109Z,4.75
2022-08-14T18:25:45.982Z,4.53
2022-08-14T18:28:16.043Z,4.38
2022-08-14T18:30:58.594Z,4.85
2022-08-14T18:33:26.410Z,4.88
2022-08-14T18:35:58.577Z,4.60
2022-08-14T18:38:59.739Z,4.72
2022-08-14T18:41:37.176Z,5.00
2022-08-14T18:44:10.968Z,5.30
2022-08-14T18:47:09.909Z,5.53
2022-08-14T18:49:53.148Z,5.30
2022-08-14T18:52:23.004Z,5.28
2022-08-14T18:54:59.199Z,5.28
2022-08-14T18:57:27.136Z,6.05
2022-08-14T19:00:39.991Z,5.53
2022-08-14T19:03:08.873Z,4.85
2022-08-14T19:05:47.037Z,4.78
2022-08-14T19:08:25.312Z,4.25
2022-08-14T19:10:55.602Z,5.25
2022-08-14T19:13:48.169Z,5.45
2022-08-14T19:16:23.604Z,4.90
2022-08-14T19:19:00.170Z,4.50
2022-08-14T19:21:40.013Z,5.05
2022-08-14T19:24:27.797Z,4.78
2022-08-14T19:27:16.443Z,4.82
2022-08-14T19:29:47.752Z,4.78
2022-08-14T19:32:36.666Z,5.32
2022-08-14T19:35:14.938Z,5.25
2022-08-14T19:37:52.540Z,4.53
2022-08-14T19:40:42.892Z,5.38
2022-08-14T19:43:10.556Z,4.80
2022-08-14T19:45:38.812Z,4.90
2022-08-14T19:48:15.998Z,5.88
2022-08-14T19:50:46.074Z,5.00
2022-08-14T19:53:17.247Z,5.15
2022-08-14T19:55:58.626Z,5.22
2022-08-14T19:58:54.694Z,5.22
2022-08-14T20:01:25.977Z,5.38
2022-08-14T20:03:59.874Z,5.53
2022-08-14T20:06:35.530Z,5.72
2022-08-14T20:11:04.708Z,5.38
2022-08-14T20:12:04.620Z,4.90
2022-08-14T20:14:36.136Z,4.88
2022-08-14T20:17:06.714Z,5.15
2022-08-14T20:19:37.564Z,5.07
2022-08-14T20:22:36.565Z,5.35
2022-08-14T20:24:54.184Z,5.13
2022-08-14T20:27:21.320Z,5.10
2022-08-14T20:30:32.830Z,4.82
2022-08-14T20:33:11.806Z,4.80
2022-08-14T20:35:38.293Z,5.00
2022-08-14T20:38:31.721Z,5.40
2022-08-14T20:41:01.050Z,4.85
2022-08-14T20:43:52.959Z,4.90
2022-08-14T20:46:30.148Z,5.03
2022-08-14T20:49:01.675Z,4.45
2022-08-14T20:51:43.508Z,4.80
2022-08-14T20:54:21.565Z,4.85
2022-08-14T20:57:17.979Z,4.90
2022-08-14T20:59:50.364Z,5.88
2022-08-14T21:02:29.560Z,5.00
2022-08-14T21:05:04.628Z,6.35
2022-08-14T21:07:50.894Z,7.53
2022-08-14T21:10:33.302Z,6.22
2022-08-14T21:13:26.521Z,6.40
2022-08-14T21:15:57.782Z,5.80
2022-08-14T21:18:35.252Z,6.07
2022-08-14T21:21:19.161Z,5.78
2022-08-14T21:23:55.136Z,6.10
2022-08-14T21:26:51.129Z,8.18
2022-08-14T21:29:11.986Z,5.07
2022-08-14T21:31:40.504Z,6.13
2022-08-14T21:34:31.197Z,6.03
2022-08-14T21:36:54.472Z,5.82
2022-08-14T21:39:24.726Z,7.60
2022-08-14T21:41:58.880Z,7.88
2022-08-14T21:44:42.799Z,7.78
2022-08-14T21:47:13.030Z,5.68
2022-08-14T21:49:40.241Z,5.25
2022-08-14T21:52:50.352Z,5.47
2022-08-14T21:55:09.210Z,5.47
2022-08-14T21:58:44.691Z,5.88
2022-08-14T22:00:35.132Z,5.35
2022-08-14T22:03:05.421Z,5.00
2022-08-14T22:05:32.339Z,5.28
2022-08-14T22:07:59.412Z,4.93
2022-08-14T22:10:29.901Z,5.43
2022-08-14T22:13:01.217Z,5.38
2022-08-14T22:15:30.281Z,5.13
2022-08-14T22:17:58.866Z,5.05
2022-08-14T22:20:28.422Z,5.50
2022-08-14T22:22:57.424Z,5.15
2022-08-14T22:25:33.932Z,6.07
2022-08-14T22:28:05.971Z,5.82
2022-08-14T22:30:33.794Z,5.43
2022-08-14T22:33:00.626Z,5.47
2022-08-14T22:35:28.118Z,5.10
2022-08-14T22:38:34.976Z,5.35
2022-08-14T22:41:06.530Z,5.05
2022-08-14T22:43:31.749Z,5.07
2022-08-14T22:46:02.166Z,5.05
2022-08-14T22:48:29.663Z,4.43
2022-08-14T22:50:56.505Z,5.38
2022-08-14T22:53:24.134Z,5.28
2022-08-14T22:55:56.642Z,5.13
2022-08-14T22:58:30.236Z,5.28
2022-08-14T23:01:01.084Z,4.68
2022-08-14T23:03:28.751Z,5.00
2022-08-14T23:05:55.824Z,4.40
2022-08-14T23:09:00.129Z,4.93
2022-08-14T23:11:10.494Z,5.00
2022-08-14T23:13:43.522Z,5.40
2022-08-14T23:16:19.937Z,4.88
2022-08-14T23:18:53.804Z,4.70
2022-08-14T23:21:24.155Z,5.32
2022-08-14T23:23:55.001Z,4.72
2022-08-14T23:26:47.701Z,5.10
2022-08-14T23:29:11.471Z,5.15
2022-08-14T23:31:38.402Z,4.47
2022-08-14T23:34:09.257Z,4.93
2022-08-14T23:36:53.331Z,5.60
2022-08-14T23:39:29.579Z,5.38
2022-08-14T23:42:02.368Z,4.97
2022-08-14T23:44:32.189Z,5.25
2022-08-14T23:47:05.599Z,5.38
2022-08-14T23:50:00.055Z,4.95
2022-08-14T23:53:06.039Z,5.82
2022-08-14T23:55:11.675Z,4.90
2022-08-14T23:57:44.083Z,5.45
